This is the latest recevied weather packets stored in our database for station/object KF0PEC-13. If no packets are shown the sender has not sent any weather packets the latest 10 day(s).
| Time | Temp. | Humidity | Pressure | Rain* | Wind** | Luminosity | Snow |
|---|---|---|---|---|---|---|---|
| 1777672528 | 13.89° C | 36% | 1020.7 hPa | 0 mm | - | - | - |
| 1777670133 | 12.78° C | 39% | 1021.3 hPa | 0 mm | - | - | - |
| 1777667134 | 11.67° C | 40% | 1021.9 hPa | 0 mm | - | - | - |
| 1777658135 | 9.44° C | 46% | 1022.8 hPa | 0 mm | - | - | - |
| 1777654531 | 8.89° C | 50% | 1022.7 hPa | 0 mm | - | - | - |
| 1777652135 | 10° C | 49% | 1022.5 hPa | 0 mm | - | - | - |
| 1777647928 | 7.22° C | 61% | 1022.7 hPa | 0 mm | - | - | - |
| 1777640721 | 0.56° C | 96% | 1022.3 hPa | 0 mm | - | - | - |
| 1777640117 | 0.56° C | 96% | 1022.2 hPa | 0 mm | - | - | - |
| 1777638326 | 0° C | 96% | 1022 hPa | 0 mm | - | - | - |
| 1777630535 | 0.56° C | 95% | 1022 hPa | 0 mm | - | - | - |
| 1777624515 | 1.11° C | 94% | 1022.6 hPa | 0 mm | - | - | - |
| 1777619724 | 2.78° C | 94% | 1023.5 hPa | 0 mm | - | - | - |
| 1777617932 | 2.78° C | 94% | 1023.6 hPa | 0 mm | - | - | - |
| 1777613121 | 2.78° C | 93% | 1023.4 hPa | 0 mm | - | - | - |
| 1777612517 | 2.78° C | 93% | 1023.6 hPa | 0 mm | - | - | - |
| 1777608934 | 2.78° C | 93% | 1023.5 hPa | 0.51 mm | - | - | - |
| 1777607122 | 2.78° C | 93% | 1023.3 hPa | 0.25 mm | - | - | - |
| 1777606538 | 2.78° C | 92% | 1023.2 hPa | 0 mm | - | - | - |
| 1777602934 | 3.33° C | 90% | 1022.7 hPa | 0 mm | - | - | - |
| 1777601122 | 3.89° C | 88% | 1022.1 hPa | 0 mm | - | - | - |
| 1777596352 | 4.44° C | 88% | 1021.5 hPa | 0 mm | - | - | - |
| 1777595143 | 4.44° C | 88% | 1021.3 hPa | 0 mm | - | - | - |
| 1777593332 | 5° C | 83% | 1021.1 hPa | 0 mm | - | - | - |
| 1777592728 | 5° C | 79% | 1021 hPa | 0 mm | - | - | - |
* Rain latest hour (hover to see other rain measurements)
** Current wind speed in m/s (hover to see current wind gust speed)